Terminal Aerodrome Forecast
Issued by NWS

Home | Current Version | Previous Version | Text Only | Print | Product List | Glossary On
Versions: 1 2 3 4 5 6 7 8 9 10 11 12 13
272
FTUS43 KILX 260621 RRA
TAFBMI
TAF
KBMI 260621Z 2606/2706 17006KT P6SM SCT250
     FM261500 24007KT P6SM SCT050 BKN250
     FM270200 30005KT P6SM BKN050=

USA.gov is the U.S. government's official web portal to all federal, state and local government web resources and services.